Time;durP1;ratioP1;P1;durP2;ratioP2;P2;SDS_P1;SDS_P2;PMS_P1;PMS_P2;Temp;Humidity;BMP_temperature;BMP_pressure;BME280_temperature;BME280_humidity;BME280_pressure;Samples;Min_cycle;Max_cycle;Signal;HPM_P1;HPM_P2
2023/06/07 00:00:24;;;;;;;3.80;3.40;;;23.70;51.00;;;;;;5073522;28;20204;-85
2023/06/07 00:03:32;;;;;;;4.27;3.40;;;23.70;50.80;;;;;;5071124;28;20174;-85
2023/06/07 00:06:00;;;;;;;4.20;3.10;;;23.80;50.90;;;;;;5053083;28;20604;-86
2023/06/07 00:08:28;;;;;;;3.73;3.30;;;23.80;50.90;;;;;;5054158;28;20172;-85
2023/06/07 00:10:54;;;;;;;5.73;3.70;;;23.80;50.80;;;;;;5055364;28;20254;-86
2023/06/07 00:13:20;;;;;;;5.00;3.60;;;23.80;50.80;;;;;;5054947;28;20622;-86
2023/06/07 00:15:46;;;;;;;6.10;3.40;;;23.80;50.80;;;;;;5056450;28;20176;-85
2023/06/07 00:18:12;;;;;;;4.47;3.43;;;23.80;50.80;;;;;;5057468;28;20449;-86
2023/06/07 00:20:37;;;;;;;3.60;3.20;;;23.80;50.80;;;;;;5057451;28;20462;-86
2023/06/07 00:23:05;;;;;;;3.93;3.20;;;23.70;50.80;;;;;;5057229;28;20186;-86
2023/06/07 00:25:30;;;;;;;3.97;3.30;;;23.80;50.80;;;;;;5076340;28;20213;-86
2023/06/07 00:27:56;;;;;;;3.80;3.37;;;23.80;50.90;;;;;;5058638;28;20182;-86
2023/06/07 00:30:22;;;;;;;4.30;3.50;;;23.80;50.90;;;;;;5058652;28;20201;-85
2023/06/07 00:32:47;;;;;;;4.27;3.47;;;23.80;50.80;;;;;;5059057;28;20274;-86
2023/06/07 00:35:13;;;;;;;5.17;3.53;;;23.80;50.90;;;;;;5058584;28;20241;-86
2023/06/07 00:37:41;;;;;;;3.97;3.50;;;23.80;50.90;;;;;;5059014;28;20281;-86
2023/06/07 00:40:07;;;;;;;4.27;3.10;;;23.80;51.10;;;;;;5083552;28;20391;-86
2023/06/07 00:42:33;;;;;;;4.30;3.70;;;23.70;50.90;;;;;;5076595;28;20507;-86
2023/06/07 00:44:59;;;;;;;4.23;3.53;;;23.70;50.90;;;;;;5075986;28;20199;-86
2023/06/07 00:47:26;;;;;;;4.70;3.50;;;23.70;50.90;;;;;;5058987;28;20176;-85
2023/06/07 00:49:53;;;;;;;3.80;3.33;;;23.70;50.90;;;;;;5057693;28;20186;-86
2023/06/07 00:52:19;;;;;;;4.70;3.50;;;23.70;51.00;;;;;;5058013;28;20180;-85
2023/06/07 00:54:45;;;;;;;4.57;3.37;;;23.70;50.90;;;;;;5057951;28;20187;-86
2023/06/07 00:57:13;;;;;;;3.83;3.40;;;23.70;51.00;;;;;;5075020;28;20180;-86
2023/06/07 00:59:38;;;;;;;3.97;3.57;;;23.70;51.40;;;;;;5057759;28;20187;-86
2023/06/07 01:02:05;;;;;;;3.50;3.20;;;23.70;51.00;;;;;;5056920;28;20181;-86
2023/06/07 01:04:31;;;;;;;4.00;3.40;;;23.70;51.40;;;;;;5056028;28;20175;-86
2023/06/07 01:06:57;;;;;;;3.93;3.40;;;23.70;51.00;;;;;;5073047;28;20561;-86
2023/06/07 01:09:24;;;;;;;4.53;3.23;;;23.70;51.00;;;;;;5056056;28;20185;-86
2023/06/07 01:11:52;;;;;;;4.10;3.70;;;23.70;51.00;;;;;;5057402;28;20621;-86
2023/06/07 01:14:19;;;;;;;3.80;3.40;;;23.70;51.00;;;;;;5057640;28;20173;-86
2023/06/07 01:16:50;;;;;;;4.87;3.37;;;23.70;51.10;;;;;;5058052;28;20183;-85
2023/06/07 01:19:28;;;;;;;4.07;3.40;;;23.70;51.10;;;;;;5058660;28;20266;-86
2023/06/07 01:22:00;;;;;;;5.27;3.40;;;23.70;51.10;;;;;;5074663;22;20237;-1
2023/06/07 01:24:29;;;;;;;4.43;3.20;;;23.70;51.00;;;;;;5015037;28;20185;-2
2023/06/07 01:26:59;;;;;;;5.50;3.27;;;23.70;51.00;;;;;;5023334;28;20551;-2
2023/06/07 01:29:26;;;;;;;4.37;3.23;;;23.70;51.00;;;;;;5031286;28;20190;-2
2023/06/07 01:31:53;;;;;;;3.30;3.00;;;23.70;51.00;;;;;;5019630;28;20188;-1
2023/06/07 01:34:23;;;;;;;4.73;3.20;;;23.70;51.00;;;;;;5016912;28;20276;-2
2023/06/07 01:36:52;;;;;;;4.10;3.40;;;23.70;51.00;;;;;;5021484;28;20565;-1
2023/06/07 01:39:20;;;;;;;4.30;3.47;;;23.60;50.90;;;;;;5035118;28;20207;-2
2023/06/07 01:41:50;;;;;;;3.37;3.07;;;23.70;51.00;;;;;;5022497;28;20180;-2
2023/06/07 01:44:16;;;;;;;3.33;2.97;;;23.70;50.90;;;;;;5015151;28;20516;-2
2023/06/07 01:46:43;;;;;;;3.27;2.93;;;23.70;50.90;;;;;;5024080;28;20270;-1
2023/06/07 01:49:08;;;;;;;3.30;3.00;;;23.70;50.90;;;;;;5000246;28;20273;-1
2023/06/07 01:51:35;;;;;;;3.50;3.20;;;23.70;50.90;;;;;;5021952;28;20256;-2
2023/06/07 01:54:07;;;;;;;3.83;3.00;;;23.60;50.90;;;;;;5003359;28;20177;-1
2023/06/07 01:57:03;;;;;;;5.27;3.23;;;23.60;50.90;;;;;;5019876;28;20239;-2
2023/06/07 01:59:40;;;;;;;3.50;3.00;;;23.60;50.90;;;;;;5031645;28;20209;-1
2023/06/07 02:02:31;;;;;;;5.63;3.30;;;23.60;50.90;;;;;;5029976;28;20216;-2
2023/06/07 02:05:07;;;;;;;4.90;3.20;;;23.60;50.90;;;;;;4998895;28;20213;-2
2023/06/07 02:07:40;;;;;;;4.23;2.80;;;23.60;51.00;;;;;;5026169;28;20562;-1
2023/06/07 02:10:09;;;;;;;4.20;3.00;;;23.60;51.00;;;;;;5016021;28;20177;-2
2023/06/07 02:12:39;;;;;;;3.93;2.90;;;23.60;51.00;;;;;;5019862;28;20177;-1
2023/06/07 02:15:06;;;;;;;3.80;3.00;;;23.60;50.90;;;;;;5015886;28;20314;-2
2023/06/07 02:17:34;;;;;;;3.27;2.97;;;23.60;50.90;;;;;;5027061;28;20178;-1
2023/06/07 02:20:03;;;;;;;3.80;3.03;;;23.60;51.00;;;;;;5030951;28;20180;-1
2023/06/07 02:22:29;;;;;;;4.23;2.90;;;23.60;51.40;;;;;;5008427;28;20259;-1
2023/06/07 02:24:56;;;;;;;6.67;3.10;;;23.60;51.00;;;;;;5008756;28;20304;-1
2023/06/07 02:27:21;;;;;;;4.00;2.90;;;23.60;51.00;;;;;;5005122;28;20552;-2
2023/06/07 02:29:47;;;;;;;3.13;2.83;;;23.50;50.90;;;;;;5006855;28;20239;-2
2023/06/07 02:32:13;;;;;;;3.33;2.90;;;23.60;51.00;;;;;;5013225;28;20539;-1
2023/06/07 02:34:39;;;;;;;3.30;2.97;;;23.50;50.90;;;;;;5002981;28;20185;-2
2023/06/07 02:37:05;;;;;;;3.60;2.60;;;23.60;51.00;;;;;;5012579;28;20269;-1
2023/06/07 02:39:30;;;;;;;3.37;2.50;;;23.50;50.90;;;;;;5002069;28;20185;-1
2023/06/07 02:41:56;;;;;;;5.20;2.90;;;23.50;50.90;;;;;;5013989;28;20196;-1
2023/06/07 02:44:25;;;;;;;5.50;2.87;;;23.50;50.90;;;;;;5000926;28;20239;-2
2023/06/07 02:46:54;;;;;;;4.13;2.80;;;23.50;50.90;;;;;;5014466;28;20181;-2
2023/06/07 02:49:19;;;;;;;3.43;2.77;;;23.50;50.90;;;;;;4999939;28;20204;-2
2023/06/07 02:51:45;;;;;;;4.17;2.77;;;23.50;51.00;;;;;;5014509;28;20169;-2
2023/06/07 02:54:16;;;;;;;3.30;2.90;;;23.50;50.90;;;;;;5002555;28;20188;-2
2023/06/07 02:56:41;;;;;;;3.33;2.87;;;23.50;50.90;;;;;;5013284;28;20212;-1
2023/06/07 02:59:07;;;;;;;3.20;2.60;;;23.50;50.90;;;;;;5002490;28;20189;-2
2023/06/07 03:01:33;;;;;;;3.70;2.60;;;23.50;50.90;;;;;;5009174;28;20181;-1
2023/06/07 03:03:59;;;;;;;3.90;2.87;;;23.50;50.90;;;;;;5004625;28;20556;-1
2023/06/07 03:06:29;;;;;;;3.93;2.80;;;23.50;50.90;;;;;;5007877;28;20490;-2
2023/06/07 03:08:55;;;;;;;3.10;2.80;;;23.50;50.90;;;;;;5012162;28;20186;-2
2023/06/07 03:11:21;;;;;;;4.77;2.80;;;23.50;50.90;;;;;;5010911;28;20188;-3
2023/06/07 03:13:47;;;;;;;4.53;2.80;;;23.40;51.00;;;;;;5014776;28;20181;-3
2023/06/07 03:16:13;;;;;;;3.90;2.90;;;23.50;51.00;;;;;;5008872;28;20249;-4
2023/06/07 03:18:38;;;;;;;4.17;2.77;;;23.40;50.90;;;;;;5015538;28;20177;-3
2023/06/07 03:21:04;;;;;;;4.60;2.87;;;23.40;51.00;;;;;;5005338;28;20188;-4
2023/06/07 03:23:30;;;;;;;3.73;2.60;;;23.40;51.00;;;;;;5036257;28;20188;-5
2023/06/07 03:25:59;;;;;;;3.53;2.53;;;23.40;51.00;;;;;;5034501;28;20447;-4
2023/06/07 03:28:25;;;;;;;23.93;3.17;;;23.40;51.00;;;;;;5019464;28;20442;-3
2023/06/07 03:30:54;;;;;;;3.77;2.77;;;23.40;51.00;;;;;;5024335;28;20235;-4
2023/06/07 03:33:19;;;;;;;2.97;2.30;;;23.40;51.00;;;;;;5020044;28;20176;-4
2023/06/07 03:35:45;;;;;;;3.17;2.60;;;23.40;51.00;;;;;;5007802;28;20240;-4
2023/06/07 03:38:11;;;;;;;3.40;2.63;;;23.40;50.90;;;;;;5037521;28;20647;-4
2023/06/07 03:40:36;;;;;;;3.53;2.70;;;23.40;51.40;;;;;;5025956;28;20308;-4
2023/06/07 03:43:02;;;;;;;4.37;2.70;;;23.40;51.00;;;;;;5018262;28;20353;-4
2023/06/07 03:45:28;;;;;;;3.57;2.80;;;23.40;50.90;;;;;;5028244;28;20306;-4
2023/06/07 03:47:54;;;;;;;3.07;2.60;;;23.40;51.00;;;;;;5013980;28;20172;-4
2023/06/07 03:50:23;;;;;;;4.20;2.70;;;23.40;51.10;;;;;;5031824;28;20168;-4
2023/06/07 03:52:49;;;;;;;2.73;2.43;;;23.30;51.00;;;;;;5029568;28;20184;-4
2023/06/07 03:55:19;;;;;;;3.63;2.70;;;23.30;51.00;;;;;;5031680;28;20175;-3
2023/06/07 03:57:48;;;;;;;3.73;2.70;;;23.30;51.00;;;;;;5027255;28;20640;-3
2023/06/07 04:00:15;;;;;;;3.47;2.80;;;23.30;51.10;;;;;;5016782;28;20199;-4
2023/06/07 04:02:41;;;;;;;3.73;2.73;;;23.30;51.10;;;;;;5024526;28;20177;-4
2023/06/07 04:05:08;;;;;;;3.20;2.57;;;23.30;51.20;;;;;;5033148;28;20218;-4
2023/06/07 04:07:36;;;;;;;4.63;3.10;;;23.30;51.20;;;;;;5022239;28;20208;-3
2023/06/07 04:10:05;;;;;;;5.00;2.83;;;23.20;51.40;;;;;;5015488;28;20637;-3
2023/06/07 04:12:31;;;;;;;4.57;2.97;;;23.20;51.30;;;;;;5029128;28;20585;-4
2023/06/07 04:14:57;;;;;;;3.63;2.73;;;23.20;51.40;;;;;;5015279;28;20273;-4
2023/06/07 04:17:22;;;;;;;3.70;2.80;;;23.10;51.40;;;;;;5024794;28;20216;-4
2023/06/07 04:19:54;;;;;;;3.50;3.07;;;23.00;51.80;;;;;;5013857;28;20210;-3
2023/06/07 04:22:24;;;;;;;3.57;2.70;;;23.00;51.90;;;;;;5004315;28;20194;-4
2023/06/07 04:24:51;;;;;;;6.70;3.10;;;23.00;51.70;;;;;;4993069;28;20209;-4
2023/06/07 04:27:20;;;;;;;3.43;2.80;;;23.10;51.60;;;;;;4998693;28;20190;-4
2023/06/07 04:29:53;;;;;;;4.37;2.87;;;23.10;51.60;;;;;;5008492;28;20265;-4
2023/06/07 04:32:19;;;;;;;4.03;3.17;;;23.10;51.60;;;;;;5004803;28;20166;-4
2023/06/07 04:34:46;;;;;;;4.13;2.60;;;23.10;51.60;;;;;;4995467;28;20178;-4
2023/06/07 04:37:12;;;;;;;3.13;2.57;;;23.10;51.40;;;;;;5001097;28;20625;-4
2023/06/07 04:39:40;;;;;;;3.80;2.87;;;23.10;51.40;;;;;;4997820;28;20182;-4
2023/06/07 04:42:07;;;;;;;3.33;2.70;;;23.10;51.40;;;;;;4997182;28;20170;-3
2023/06/07 04:44:37;;;;;;;2.90;2.60;;;23.10;51.50;;;;;;4998213;28;20181;-3
2023/06/07 04:47:03;;;;;;;2.97;2.37;;;23.10;51.60;;;;;;4995531;28;20193;-4
2023/06/07 04:49:33;;;;;;;4.10;2.50;;;23.10;51.60;;;;;;5000386;28;20326;-3
2023/06/07 04:52:01;;;;;;;4.50;2.90;;;23.10;51.70;;;;;;4994186;28;20175;-3
2023/06/07 04:54:29;;;;;;;4.03;2.80;;;23.10;51.70;;;;;;5002479;28;20213;-4
2023/06/07 04:56:56;;;;;;;3.47;2.83;;;23.10;51.90;;;;;;4993905;28;20216;-3
2023/06/07 04:59:24;;;;;;;4.30;3.00;;;23.10;52.00;;;;;;5002540;28;20178;-4
2023/06/07 05:01:50;;;;;;;4.60;2.60;;;23.10;52.00;;;;;;5013526;23;20308;-70
2023/06/07 05:04:19;;;;;;;3.80;2.60;;;23.00;52.30;;;;;;5010748;28;20174;-70
2023/06/07 05:06:49;;;;;;;4.63;2.73;;;23.00;52.20;;;;;;5008983;28;20211;-70
2023/06/07 05:09:15;;;;;;;4.40;2.93;;;23.00;52.30;;;;;;5009450;28;20165;-70
2023/06/07 05:11:41;;;;;;;5.43;2.90;;;23.00;52.70;;;;;;5009448;28;20571;-70
2023/06/07 05:14:07;;;;;;;3.20;2.70;;;23.00;52.50;;;;;;5024133;28;20176;-70
2023/06/07 05:16:32;;;;;;;3.87;2.57;;;23.00;52.40;;;;;;5010201;28;20460;-70
2023/06/07 05:18:58;;;;;;;4.93;2.70;;;23.00;52.50;;;;;;5010230;28;20347;-70
2023/06/07 05:21:27;;;;;;;3.27;2.60;;;23.00;52.60;;;;;;5011377;28;20269;-71
2023/06/07 05:23:53;;;;;;;3.77;2.97;;;23.00;52.60;;;;;;5011132;28;20510;-70
2023/06/07 05:26:18;;;;;;;3.47;2.40;;;23.00;52.50;;;;;;5008948;28;20205;-70
2023/06/07 05:28:44;;;;;;;3.37;2.60;;;23.10;52.60;;;;;;5008469;28;20227;-70
2023/06/07 05:31:12;;;;;;;3.17;2.83;;;23.10;52.60;;;;;;5008002;28;20609;-71
2023/06/07 05:33:38;;;;;;;4.10;2.87;;;23.10;52.50;;;;;;5007970;28;20171;-70
2023/06/07 05:36:04;;;;;;;5.10;3.03;;;23.10;52.60;;;;;;5006146;28;20169;-70
2023/06/07 05:38:29;;;;;;;4.70;2.93;;;23.10;52.70;;;;;;5006345;28;20828;-71
2023/06/07 05:40:59;;;;;;;4.53;2.70;;;23.10;52.70;;;;;;5005553;28;20177;-71
2023/06/07 05:43:25;;;;;;;4.40;2.90;;;23.10;52.70;;;;;;5007466;28;20344;-71
2023/06/07 05:45:50;;;;;;;7.13;3.30;;;23.00;52.70;;;;;;5003544;28;20213;-70
2023/06/07 05:48:16;;;;;;;5.20;3.10;;;23.10;52.70;;;;;;5008736;28;20182;-72
2023/06/07 05:50:42;;;;;;;5.83;3.07;;;23.10;52.70;;;;;;5010448;28;20253;-71
2023/06/07 05:53:08;;;;;;;5.27;3.10;;;23.10;52.80;;;;;;5010478;28;20180;-71
2023/06/07 05:55:34;;;;;;;4.40;3.27;;;23.10;52.70;;;;;;5008698;28;20180;-71
2023/06/07 05:58:03;;;;;;;7.80;4.67;;;23.00;52.80;;;;;;5011736;28;20188;-71
2023/06/07 06:00:30;;;;;;;6.93;3.77;;;23.10;53.10;;;;;;5010445;28;20182;-71
2023/06/07 06:02:56;;;;;;;4.07;2.73;;;23.00;53.00;;;;;;5029597;28;20185;-71
2023/06/07 06:05:27;;;;;;;3.93;3.00;;;23.00;52.90;;;;;;5030599;28;20208;-71
2023/06/07 06:07:54;;;;;;;5.07;3.20;;;23.00;52.80;;;;;;5031966;28;20169;-71
2023/06/07 06:10:20;;;;;;;5.13;3.27;;;23.10;52.90;;;;;;5032309;28;20237;-71
2023/06/07 06:12:50;;;;;;;5.67;3.10;;;23.00;53.10;;;;;;5033248;28;20174;-71
2023/06/07 06:15:15;;;;;;;5.10;3.37;;;23.00;53.00;;;;;;5030817;28;20166;-71
2023/06/07 06:17:41;;;;;;;7.73;3.60;;;23.00;53.10;;;;;;5031626;28;20538;-71
2023/06/07 06:20:11;;;;;;;6.73;3.60;;;23.00;53.10;;;;;;5032739;28;20165;-70
2023/06/07 06:22:37;;;;;;;5.00;3.60;;;23.00;53.10;;;;;;5032356;28;20377;-71
2023/06/07 06:25:03;;;;;;;5.47;3.00;;;22.90;53.40;;;;;;5031476;28;20201;-71
2023/06/07 06:27:31;;;;;;;9.50;4.07;;;23.00;53.50;;;;;;5031077;28;20260;-71
2023/06/07 06:29:57;;;;;;;8.83;3.47;;;22.90;53.80;;;;;;5031091;28;20191;-71
2023/06/07 06:32:23;;;;;;;4.07;3.30;;;22.90;53.50;;;;;;5031138;28;20171;-71
2023/06/07 06:34:49;;;;;;;4.43;3.33;;;22.90;53.40;;;;;;5030976;28;20176;-71
2023/06/07 06:37:15;;;;;;;4.47;3.47;;;22.90;53.40;;;;;;5031974;28;20284;-71
2023/06/07 06:39:40;;;;;;;6.20;4.03;;;22.90;53.50;;;;;;5030933;28;20172;-70
2023/06/07 06:42:14;;;;;;;8.97;3.77;;;22.90;53.50;;;;;;5034027;28;20178;-71
2023/06/07 06:44:39;;;;;;;7.47;3.80;;;23.00;53.50;;;;;;5035804;28;20176;-71
2023/06/07 06:47:05;;;;;;;5.67;3.73;;;23.00;53.60;;;;;;5034914;28;20189;-71
2023/06/07 06:49:31;;;;;;;5.33;3.60;;;23.00;53.60;;;;;;5033780;28;20159;-70
2023/06/07 06:51:56;;;;;;;6.47;3.50;;;23.00;53.50;;;;;;5034988;28;20184;-70
2023/06/07 06:54:22;;;;;;;7.90;4.03;;;22.90;53.60;;;;;;5037195;28;20161;-70
2023/06/07 06:56:48;;;;;;;6.23;3.83;;;22.90;53.90;;;;;;5035995;28;20161;-70
2023/06/07 06:59:14;;;;;;;6.33;3.67;;;22.90;54.00;;;;;;5035766;28;20174;-71
2023/06/07 07:01:46;;;;;;;5.50;3.37;;;22.90;53.90;;;;;;5033919;28;20227;-71
2023/06/07 07:04:13;;;;;;;6.73;3.63;;;22.90;53.80;;;;;;5035206;28;20272;-70
2023/06/07 07:06:40;;;;;;;8.63;3.77;;;22.90;53.80;;;;;;5032928;28;20208;-69
2023/06/07 07:09:07;;;;;;;5.20;3.80;;;22.90;53.90;;;;;;5034858;28;20262;-71
2023/06/07 07:11:38;;;;;;;5.03;3.70;;;22.90;53.80;;;;;;5034200;28;20637;-71
2023/06/07 07:14:07;;;;;;;4.97;3.50;;;22.90;53.80;;;;;;5033499;28;20537;-70
2023/06/07 07:16:33;;;;;;;6.07;3.87;;;22.90;53.90;;;;;;5034240;28;20175;-71
2023/06/07 07:19:02;;;;;;;4.27;3.80;;;22.90;53.80;;;;;;5034405;28;20186;-71
2023/06/07 07:21:31;;;;;;;5.20;3.80;;;22.90;53.90;;;;;;5035953;28;20180;-71
2023/06/07 07:23:56;;;;;;;4.80;3.47;;;23.00;53.90;;;;;;5034143;28;20608;-71
2023/06/07 07:26:30;;;;;;;4.83;3.30;;;22.90;54.00;;;;;;5034999;28;20203;-71
2023/06/07 07:28:55;;;;;;;4.23;3.70;;;22.90;54.10;;;;;;5022237;28;20194;-71
2023/06/07 07:31:24;;;;;;;6.87;3.70;;;22.90;54.00;;;;;;5024432;28;20435;-71
2023/06/07 07:33:49;;;;;;;5.03;3.30;;;22.90;54.10;;;;;;5014635;28;20168;-71
2023/06/07 07:36:17;;;;;;;4.90;3.37;;;22.90;54.00;;;;;;5022705;28;20242;-71
2023/06/07 07:38:49;;;;;;;6.20;3.90;;;22.90;54.10;;;;;;5028359;28;20183;-71
2023/06/07 07:41:18;;;;;;;6.57;3.90;;;22.90;54.20;;;;;;5035464;28;20675;-72
2023/06/07 07:43:46;;;;;;;4.87;3.80;;;22.90;54.20;;;;;;5034769;28;20176;-71
2023/06/07 07:46:15;;;;;;;6.67;4.10;;;22.90;54.10;;;;;;5035240;28;20257;-72
2023/06/07 07:48:43;;;;;;;5.63;3.77;;;22.90;54.10;;;;;;5036136;28;20153;-72
2023/06/07 07:51:09;;;;;;;4.40;3.40;;;23.00;54.10;;;;;;5034398;28;20575;-72
2023/06/07 07:53:35;;;;;;;5.17;3.40;;;23.00;54.20;;;;;;5031609;28;20169;-71
2023/06/07 07:56:01;;;;;;;5.50;3.70;;;23.00;54.20;;;;;;5033354;28;20184;-71
2023/06/07 07:58:33;;;;;;;4.73;3.40;;;23.00;54.20;;;;;;5033869;28;20192;-72
2023/06/07 08:01:01;;;;;;;5.67;3.63;;;23.00;54.10;;;;;;5032854;28;20733;-71
2023/06/07 08:03:30;;;;;;;4.93;3.67;;;23.00;54.10;;;;;;5033495;28;20408;-71
2023/06/07 08:05:59;;;;;;;4.53;3.43;;;23.00;54.20;;;;;;5030727;28;20205;-71
2023/06/07 08:08:28;;;;;;;5.20;3.70;;;23.00;54.20;;;;;;5022915;28;20173;-72
2023/06/07 08:10:54;;;;;;;3.67;3.30;;;23.00;54.20;;;;;;5014999;28;20177;-72
2023/06/07 08:13:20;;;;;;;4.97;3.80;;;23.00;54.30;;;;;;5013529;28;20170;-72
2023/06/07 08:15:47;;;;;;;6.43;3.43;;;23.00;54.40;;;;;;5010544;28;20467;-72
2023/06/07 08:18:12;;;;;;;5.60;3.67;;;23.00;54.50;;;;;;5011695;28;20453;-72
2023/06/07 08:20:41;;;;;;;4.27;3.53;;;23.00;54.30;;;;;;5007188;28;20238;-72
2023/06/07 08:23:09;;;;;;;6.23;3.53;;;23.00;54.40;;;;;;5007164;28;20187;-71
2023/06/07 08:25:38;;;;;;;4.20;3.80;;;23.00;54.40;;;;;;5005505;28;20732;-72
2023/06/07 08:28:04;;;;;;;6.00;3.70;;;23.10;54.60;;;;;;5008467;28;20205;-72
2023/06/07 08:30:31;;;;;;;6.37;3.60;;;23.10;54.30;;;;;;5007135;28;20172;-71
2023/06/07 08:32:57;;;;;;;5.27;3.83;;;23.10;54.50;;;;;;5006253;28;20174;-72
2023/06/07 08:35:23;;;;;;;5.30;3.63;;;23.10;54.50;;;;;;5004820;28;20569;-72
2023/06/07 08:37:51;;;;;;;7.53;3.67;;;23.10;54.60;;;;;;5005644;28;20203;-72
2023/06/07 08:40:18;;;;;;;5.73;3.50;;;23.20;54.50;;;;;;5006124;28;20240;-71
2023/06/07 08:42:47;;;;;;;4.87;3.30;;;23.10;54.60;;;;;;5012476;28;20183;-72
2023/06/07 08:45:14;;;;;;;4.40;3.80;;;23.10;54.60;;;;;;5013008;28;20215;-72
2023/06/07 08:47:43;;;;;;;5.93;3.67;;;23.10;54.70;;;;;;5006530;28;20187;-72
2023/06/07 08:50:15;;;;;;;6.20;3.70;;;23.10;54.80;;;;;;5004535;28;20445;-72
2023/06/07 08:52:42;;;;;;;6.83;3.90;;;23.00;54.90;;;;;;5010289;28;20779;-72
2023/06/07 08:55:12;;;;;;;6.67;4.33;;;23.10;55.10;;;;;;5006779;28;20207;-72
2023/06/07 08:57:39;;;;;;;8.37;4.47;;;23.00;54.90;;;;;;5006465;28;20177;-71
2023/06/07 09:00:08;;;;;;;4.90;4.00;;;23.00;55.00;;;;;;5006536;28;20183;-71
2023/06/07 09:02:34;;;;;;;7.20;4.03;;;23.10;55.00;;;;;;4995297;28;20334;-72
2023/06/07 09:05:05;;;;;;;7.43;3.90;;;23.10;55.10;;;;;;5012215;28;20618;-72
2023/06/07 09:07:35;;;;;;;5.70;4.63;;;23.10;55.10;;;;;;5011544;28;20456;-72
2023/06/07 09:10:07;;;;;;;6.43;4.30;;;23.10;55.70;;;;;;5012239;28;20180;-72
2023/06/07 09:12:33;;;;;;;5.60;3.97;;;23.10;55.20;;;;;;5011510;28;20168;-71
2023/06/07 09:14:59;;;;;;;5.13;4.00;;;23.10;55.10;;;;;;5010525;28;20179;-72
2023/06/07 09:18:02;;;;;;;5.50;4.17;;;23.10;55.10;;;;;;5009574;28;20271;-72
2023/06/07 09:20:31;;;;;;;7.60;4.40;;;23.10;55.00;;;;;;5010148;28;20376;-72
2023/06/07 09:23:02;;;;;;;7.73;5.50;;;23.20;55.20;;;;;;5027044;28;20672;-71
2023/06/07 09:25:30;;;;;;;8.30;5.80;;;23.20;55.60;;;;;;5009658;28;20204;-72
2023/06/07 09:27:56;;;;;;;6.40;5.43;;;23.10;55.70;;;;;;5027258;28;20423;-72
2023/06/07 09:30:23;;;;;;;6.43;4.40;;;23.10;55.70;;;;;;5008909;28;20165;-72
2023/06/07 09:32:49;;;;;;;6.47;4.37;;;23.20;55.30;;;;;;5013082;28;20257;-72
2023/06/07 09:35:18;;;;;;;7.80;5.47;;;23.20;55.20;;;;;;5026051;28;20180;-72
2023/06/07 09:37:55;;;;;;;7.40;5.40;;;23.20;55.50;;;;;;5007053;28;20175;-72
2023/06/07 09:40:25;;;;;;;7.63;5.90;;;23.30;55.40;;;;;;5023866;28;20172;-72
2023/06/07 09:42:58;;;;;;;6.77;4.97;;;23.20;55.40;;;;;;5007812;28;20181;-72
2023/06/07 09:45:28;;;;;;;9.43;6.60;;;23.30;55.10;;;;;;5007100;28;20405;-72
2023/06/07 09:48:07;;;;;;;7.27;5.47;;;23.30;55.40;;;;;;5006273;28;20547;-72
2023/06/07 09:50:33;;;;;;;9.87;7.10;;;23.40;55.00;;;;;;5003347;28;20240;-72
2023/06/07 09:53:01;;;;;;;10.97;7.40;;;23.40;55.60;;;;;;4994221;28;20710;-71
2023/06/07 09:55:31;;;;;;;7.03;5.73;;;23.40;55.50;;;;;;4994435;28;20276;-72
2023/06/07 09:57:57;;;;;;;7.27;5.50;;;23.40;55.50;;;;;;4987693;28;20177;-72
2023/06/07 10:00:25;;;;;;;7.77;6.70;;;23.40;55.00;;;;;;5005890;28;20179;-72
2023/06/07 10:02:55;;;;;;;11.13;8.87;;;23.40;55.40;;;;;;5018777;28;20201;-71
2023/06/07 10:05:21;;;;;;;10.20;9.10;;;23.40;56.00;;;;;;4986650;28;20216;-70
2023/06/07 10:07:49;;;;;;;10.30;7.23;;;23.40;56.40;;;;;;4986783;28;20183;-70
2023/06/07 10:10:18;;;;;;;10.97;8.30;;;23.40;56.50;;;;;;4985426;28;20184;-71
2023/06/07 10:12:50;;;;;;;8.90;7.47;;;23.50;56.00;;;;;;5003405;28;20281;-71
2023/06/07 10:15:23;;;;;;;8.90;7.30;;;23.60;56.30;;;;;;4991949;28;20280;-71
2023/06/07 10:18:01;;;;;;;9.17;8.10;;;23.60;55.80;;;;;;5021840;28;20233;-71
2023/06/07 10:20:30;;;;;;;9.57;8.60;;;23.60;56.20;;;;;;5018120;28;20172;-71
2023/06/07 10:23:06;;;;;;;7.57;6.90;;;23.60;55.90;;;;;;5023682;28;21512;-71
2023/06/07 10:26:03;;;;;;;8.07;6.90;;;23.60;55.30;;;;;;5020871;28;20617;-70
2023/06/07 10:28:50;;;;;;;8.17;7.27;;;23.60;55.10;;;;;;5021793;28;20562;-71
2023/06/07 10:31:16;;;;;;;7.33;6.63;;;23.70;55.70;;;;;;4974889;28;20609;-71
2023/06/07 10:33:48;;;;;;;9.00;7.50;;;23.60;55.30;;;;;;4975876;28;20178;-71
2023/06/07 10:36:17;;;;;;;7.90;7.03;;;23.70;55.40;;;;;;5005563;28;20477;-71
2023/06/07 10:38:43;;;;;;;8.40;6.90;;;23.70;55.50;;;;;;4990234;28;20795;-71
2023/06/07 10:41:10;;;;;;;8.40;6.80;;;23.70;55.60;;;;;;4972917;28;20341;-69
2023/06/07 10:43:40;;;;;;;7.50;6.50;;;23.80;55.20;;;;;;4983196;28;20760;-71
2023/06/07 10:46:23;;;;;;;8.40;7.50;;;23.80;55.30;;;;;;5029002;28;20251;-71
2023/06/07 10:48:53;;;;;;;9.87;7.90;;;23.90;55.60;;;;;;5010639;28;20177;-71
2023/06/07 10:51:55;;;;;;;7.53;6.83;;;23.90;55.40;;;;;;5010306;28;20206;-72
2023/06/07 10:54:42;;;;;;;7.83;7.10;;;23.90;55.30;;;;;;5006736;28;20703;-71
2023/06/07 10:57:08;;;;;;;9.83;8.83;;;23.90;55.70;;;;;;4990725;28;20435;-71
2023/06/07 10:59:35;;;;;;;11.53;10.33;;;24.00;57.40;;;;;;5019641;28;20192;-70
2023/06/07 11:02:24;;;;;;;7.40;6.70;;;24.10;57.50;;;;;;4997679;28;20207;-71
2023/06/07 11:04:54;;;;;;;7.37;6.57;;;24.10;56.10;;;;;;4984272;28;20182;-71
2023/06/07 11:07:31;;;;;;;11.37;7.63;;;24.10;55.60;;;;;;4978742;28;20186;-71
2023/06/07 11:10:03;;;;;;;7.93;7.13;;;24.10;56.60;;;;;;5000528;28;20173;-71
2023/06/07 11:12:44;;;;;;;9.43;7.07;;;24.10;56.40;;;;;;4978222;28;20189;-72
2023/06/07 11:15:30;;;;;;;8.87;7.77;;;24.10;55.60;;;;;;4969835;28;20193;-72
2023/06/07 11:18:04;;;;;;;7.00;6.40;;;24.20;55.80;;;;;;4977721;28;20188;-70
2023/06/07 11:20:39;;;;;;;7.97;6.90;;;24.20;55.00;;;;;;4993145;28;20173;-71
2023/06/07 11:23:25;;;;;;;9.40;8.40;;;24.30;54.90;;;;;;4954127;28;20186;-71
2023/06/07 11:26:09;;;;;;;6.93;6.23;;;24.30;55.60;;;;;;4954262;28;20309;-71
2023/06/07 11:28:37;;;;;;;7.47;6.77;;;24.30;54.90;;;;;;4950435;28;20827;-71
2023/06/07 11:31:08;;;;;;;6.83;6.10;;;24.40;54.50;;;;;;4964611;28;20183;-71
2023/06/07 11:33:34;;;;;;;6.90;6.17;;;24.50;55.00;;;;;;4970854;28;20181;-71
2023/06/07 11:36:01;;;;;;;10.87;9.47;;;24.60;54.80;;;;;;4987679;28;20170;-71
2023/06/07 11:38:27;;;;;;;10.10;8.57;;;24.50;55.80;;;;;;4986535;28;20182;-71
2023/06/07 11:40:56;;;;;;;7.83;7.00;;;24.60;56.80;;;;;;4985503;28;20185;-71
2023/06/07 11:43:27;;;;;;;7.57;6.27;;;24.60;56.00;;;;;;4967115;28;20465;-71
2023/06/07 11:46:00;;;;;;;6.83;6.13;;;24.60;54.90;;;;;;4966482;28;20580;-71
2023/06/07 11:48:29;;;;;;;12.23;9.57;;;24.70;54.80;;;;;;4966550;28;20175;-71
2023/06/07 11:50:55;;;;;;;7.40;6.43;;;24.70;57.00;;;;;;4968438;28;20214;-70
2023/06/07 11:53:28;;;;;;;5.90;5.30;;;24.80;55.20;;;;;;4966669;28;20273;-71
2023/06/07 11:55:55;;;;;;;7.63;6.93;;;24.80;54.90;;;;;;4966181;28;20178;-71
2023/06/07 11:58:22;;;;;;;6.70;5.80;;;24.80;54.80;;;;;;4967118;28;20202;-71
2023/06/07 12:00:49;;;;;;;6.80;6.10;;;24.80;54.90;;;;;;4983955;28;20178;-71
2023/06/07 12:03:17;;;;;;;7.53;5.80;;;24.80;56.20;;;;;;5004106;28;20283;-71
2023/06/07 12:05:44;;;;;;;6.50;5.50;;;24.80;56.50;;;;;;4994184;28;20205;-70
2023/06/07 12:08:13;;;;;;;6.03;5.17;;;24.80;55.20;;;;;;5009957;28;20216;-71
2023/06/07 12:10:39;;;;;;;8.50;7.03;;;24.90;55.30;;;;;;5007083;28;20434;-71
2023/06/07 12:13:21;;;;;;;6.60;5.80;;;24.90;57.60;;;;;;4995666;28;20234;-71
2023/06/07 12:15:58;;;;;;;6.90;5.10;;;24.80;56.20;;;;;;5008273;28;20181;-71
2023/06/07 12:18:25;;;;;;;8.07;7.27;;;24.80;55.60;;;;;;4997317;28;20192;-71
2023/06/07 12:21:11;;;;;;;6.20;5.60;;;24.80;57.30;;;;;;5008557;28;20283;-71
2023/06/07 12:23:44;;;;;;;8.17;7.07;;;24.80;56.40;;;;;;5003344;28;20185;-71
2023/06/07 12:26:14;;;;;;;6.97;6.20;;;24.80;56.60;;;;;;5003485;28;20609;-72
2023/06/07 12:28:42;;;;;;;4.97;4.57;;;24.80;56.10;;;;;;4973059;28;20191;-72
2023/06/07 12:31:26;;;;;;;6.97;6.00;;;24.80;56.10;;;;;;4973570;28;20739;-72
2023/06/07 12:34:11;;;;;;;8.07;6.90;;;24.90;55.90;;;;;;4985766;28;20174;-72
2023/06/07 12:36:43;;;;;;;7.33;6.20;;;24.90;56.80;;;;;;4998322;28;20182;-71
2023/06/07 12:39:13;;;;;;;7.07;6.37;;;24.90;56.10;;;;;;5001048;28;20223;-71
2023/06/07 12:41:40;;;;;;;10.30;9.30;;;24.90;56.20;;;;;;5006503;28;20320;-71
2023/06/07 13:07:11;;;;;;;;;;;24.80;56.10;;;;;;5100527;27;19912;-3
2023/06/07 15:53:59;;;;;;;6.27;5.67;;;25.20;63.40;;;;;;913692;23;20506;-4
2023/06/07 15:56:50;;;;;;;6.33;5.37;;;25.20;63.40;;;;;;4910491;29;20211;-81
2023/06/07 15:59:30;;;;;;;6.10;5.50;;;25.20;63.00;;;;;;4911264;29;20223;-82
2023/06/07 16:02:07;;;;;;;7.03;5.57;;;25.20;63.00;;;;;;4894593;29;20355;-81
2023/06/07 16:04:35;;;;;;;6.97;5.53;;;25.20;63.70;;;;;;4907107;29;20428;-82
2023/06/07 16:07:01;;;;;;;7.13;5.20;;;25.10;65.00;;;;;;4912304;29;20215;-82